sensor_id;sensor_type;location;lat;lon;timestamp;P1;durP1;ratioP1;P2;durP2;ratioP2
14686;SDS011;7431;49.440;11.084;2023-05-14T00:00:14;10.87;;;9.30;;
14686;SDS011;7431;49.440;11.084;2023-05-14T00:02:40;10.17;;;9.23;;
14686;SDS011;7431;49.440;11.084;2023-05-14T00:05:06;9.83;;;8.87;;
14686;SDS011;7431;49.440;11.084;2023-05-14T00:07:32;10.10;;;9.20;;
14686;SDS011;7431;49.440;11.084;2023-05-14T00:09:58;12.77;;;10.47;;
14686;SDS011;7431;49.440;11.084;2023-05-14T00:12:25;10.50;;;9.37;;
14686;SDS011;7431;49.440;11.084;2023-05-14T00:14:51;10.17;;;9.17;;
14686;SDS011;7431;49.440;11.084;2023-05-14T00:17:17;10.13;;;9.03;;
14686;SDS011;7431;49.440;11.084;2023-05-14T00:19:43;10.23;;;9.27;;
14686;SDS011;7431;49.440;11.084;2023-05-14T00:22:10;9.97;;;9.07;;
14686;SDS011;7431;49.440;11.084;2023-05-14T00:24:35;10.27;;;9.27;;
14686;SDS011;7431;49.440;11.084;2023-05-14T00:27:02;10.73;;;9.63;;
14686;SDS011;7431;49.440;11.084;2023-05-14T00:29:28;10.60;;;9.70;;
14686;SDS011;7431;49.440;11.084;2023-05-14T00:31:54;10.93;;;9.83;;
14686;SDS011;7431;49.440;11.084;2023-05-14T00:34:20;10.63;;;9.60;;
14686;SDS011;7431;49.440;11.084;2023-05-14T00:36:46;10.53;;;9.53;;
14686;SDS011;7431;49.440;11.084;2023-05-14T00:39:12;11.53;;;9.90;;
14686;SDS011;7431;49.440;11.084;2023-05-14T00:41:38;10.60;;;9.50;;
14686;SDS011;7431;49.440;11.084;2023-05-14T00:44:04;11.07;;;10.03;;
14686;SDS011;7431;49.440;11.084;2023-05-14T00:46:30;10.23;;;9.33;;
14686;SDS011;7431;49.440;11.084;2023-05-14T00:48:57;10.37;;;9.43;;
14686;SDS011;7431;49.440;11.084;2023-05-14T00:51:23;10.53;;;9.17;;
14686;SDS011;7431;49.440;11.084;2023-05-14T00:53:49;10.67;;;9.47;;
14686;SDS011;7431;49.440;11.084;2023-05-14T00:56:18;11.07;;;9.87;;
14686;SDS011;7431;49.440;11.084;2023-05-14T00:58:45;11.30;;;9.73;;
14686;SDS011;7431;49.440;11.084;2023-05-14T01:01:11;10.87;;;9.80;;
14686;SDS011;7431;49.440;11.084;2023-05-14T01:03:39;10.73;;;9.73;;
14686;SDS011;7431;49.440;11.084;2023-05-14T01:11:23;10.07;;;9.17;;
14686;SDS011;7431;49.440;11.084;2023-05-14T01:16:35;10.13;;;9.13;;
14686;SDS011;7431;49.440;11.084;2023-05-14T01:19:02;9.20;;;8.23;;
14686;SDS011;7431;49.440;11.084;2023-05-14T01:23:59;9.53;;;8.63;;
14686;SDS011;7431;49.440;11.084;2023-05-14T01:26:25;9.37;;;8.37;;
14686;SDS011;7431;49.440;11.084;2023-05-14T01:28:51;9.30;;;8.13;;
14686;SDS011;7431;49.440;11.084;2023-05-14T01:31:19;9.43;;;8.57;;
14686;SDS011;7431;49.440;11.084;2023-05-14T01:33:49;9.37;;;8.47;;
14686;SDS011;7431;49.440;11.084;2023-05-14T01:36:15;9.87;;;8.97;;
14686;SDS011;7431;49.440;11.084;2023-05-14T01:38:41;8.90;;;8.10;;
14686;SDS011;7431;49.440;11.084;2023-05-14T01:41:10;9.67;;;8.67;;
14686;SDS011;7431;49.440;11.084;2023-05-14T01:43:36;9.73;;;8.40;;
14686;SDS011;7431;49.440;11.084;2023-05-14T01:46:02;9.80;;;8.90;;
14686;SDS011;7431;49.440;11.084;2023-05-14T01:48:28;9.57;;;8.73;;
14686;SDS011;7431;49.440;11.084;2023-05-14T01:50:54;8.83;;;8.13;;
14686;SDS011;7431;49.440;11.084;2023-05-14T01:53:20;9.20;;;8.27;;
14686;SDS011;7431;49.440;11.084;2023-05-14T01:55:46;9.13;;;8.27;;
14686;SDS011;7431;49.440;11.084;2023-05-14T01:58:12;9.33;;;8.37;;
14686;SDS011;7431;49.440;11.084;2023-05-14T02:00:38;9.47;;;8.50;;
14686;SDS011;7431;49.440;11.084;2023-05-14T02:03:04;9.77;;;8.73;;
14686;SDS011;7431;49.440;11.084;2023-05-14T02:05:30;9.07;;;8.27;;
14686;SDS011;7431;49.440;11.084;2023-05-14T02:07:56;9.17;;;8.27;;
14686;SDS011;7431;49.440;11.084;2023-05-14T02:10:22;9.20;;;8.37;;
14686;SDS011;7431;49.440;11.084;2023-05-14T02:12:48;9.77;;;8.77;;
14686;SDS011;7431;49.440;11.084;2023-05-14T02:15:14;11.47;;;8.60;;
14686;SDS011;7431;49.440;11.084;2023-05-14T02:17:40;8.60;;;7.80;;
14686;SDS011;7431;49.440;11.084;2023-05-14T02:20:06;8.83;;;7.93;;
14686;SDS011;7431;49.440;11.084;2023-05-14T02:22:34;8.80;;;8.00;;
14686;SDS011;7431;49.440;11.084;2023-05-14T02:25:00;8.33;;;7.63;;
14686;SDS011;7431;49.440;11.084;2023-05-14T02:27:26;8.57;;;7.83;;
14686;SDS011;7431;49.440;11.084;2023-05-14T02:29:52;8.70;;;7.90;;
14686;SDS011;7431;49.440;11.084;2023-05-14T02:32:18;8.30;;;7.43;;
14686;SDS011;7431;49.440;11.084;2023-05-14T02:34:44;8.97;;;8.10;;
14686;SDS011;7431;49.440;11.084;2023-05-14T02:37:09;8.43;;;7.63;;
14686;SDS011;7431;49.440;11.084;2023-05-14T02:39:35;8.77;;;7.97;;
14686;SDS011;7431;49.440;11.084;2023-05-14T02:42:01;8.37;;;7.57;;
14686;SDS011;7431;49.440;11.084;2023-05-14T02:44:27;10.33;;;7.50;;
14686;SDS011;7431;49.440;11.084;2023-05-14T02:46:55;8.80;;;8.00;;
14686;SDS011;7431;49.440;11.084;2023-05-14T02:49:21;8.37;;;7.63;;
14686;SDS011;7431;49.440;11.084;2023-05-14T02:51:47;8.37;;;7.57;;
14686;SDS011;7431;49.440;11.084;2023-05-14T02:54:13;8.07;;;7.37;;
14686;SDS011;7431;49.440;11.084;2023-05-14T02:56:40;8.80;;;8.00;;
14686;SDS011;7431;49.440;11.084;2023-05-14T02:59:06;9.73;;;8.10;;
14686;SDS011;7431;49.440;11.084;2023-05-14T03:01:32;8.90;;;8.10;;
14686;SDS011;7431;49.440;11.084;2023-05-14T03:03:58;8.33;;;7.53;;
14686;SDS011;7431;49.440;11.084;2023-05-14T03:06:24;8.07;;;7.27;;
14686;SDS011;7431;49.440;11.084;2023-05-14T03:08:50;10.80;;;7.67;;
14686;SDS011;7431;49.440;11.084;2023-05-14T03:11:16;8.70;;;7.93;;
14686;SDS011;7431;49.440;11.084;2023-05-14T03:13:42;8.17;;;7.40;;
14686;SDS011;7431;49.440;11.084;2023-05-14T03:16:08;8.07;;;7.27;;
14686;SDS011;7431;49.440;11.084;2023-05-14T03:18:34;8.60;;;7.90;;
14686;SDS011;7431;49.440;11.084;2023-05-14T03:21:01;8.03;;;7.33;;
14686;SDS011;7431;49.440;11.084;2023-05-14T03:23:28;8.60;;;7.90;;
14686;SDS011;7431;49.440;11.084;2023-05-14T03:25:59;8.27;;;7.47;;
14686;SDS011;7431;49.440;11.084;2023-05-14T03:28:25;8.63;;;7.83;;
14686;SDS011;7431;49.440;11.084;2023-05-14T03:30:51;8.47;;;7.77;;
14686;SDS011;7431;49.440;11.084;2023-05-14T03:33:17;8.20;;;7.40;;
14686;SDS011;7431;49.440;11.084;2023-05-14T03:35:43;7.63;;;6.93;;
14686;SDS011;7431;49.440;11.084;2023-05-14T03:38:09;8.43;;;7.73;;
14686;SDS011;7431;49.440;11.084;2023-05-14T03:40:35;8.63;;;7.33;;
14686;SDS011;7431;49.440;11.084;2023-05-14T03:43:01;8.17;;;7.37;;
14686;SDS011;7431;49.440;11.084;2023-05-14T03:45:27;8.33;;;7.53;;
14686;SDS011;7431;49.440;11.084;2023-05-14T03:47:54;8.60;;;7.73;;
14686;SDS011;7431;49.440;11.084;2023-05-14T03:50:20;8.27;;;7.27;;
14686;SDS011;7431;49.440;11.084;2023-05-14T03:52:49;8.67;;;7.80;;
14686;SDS011;7431;49.440;11.084;2023-05-14T03:55:16;8.00;;;7.30;;
14686;SDS011;7431;49.440;11.084;2023-05-14T03:57:42;8.00;;;7.20;;
14686;SDS011;7431;49.440;11.084;2023-05-14T04:00:08;8.27;;;7.47;;
14686;SDS011;7431;49.440;11.084;2023-05-14T04:02:34;7.73;;;7.03;;
14686;SDS011;7431;49.440;11.084;2023-05-14T04:05:00;7.80;;;7.10;;
14686;SDS011;7431;49.440;11.084;2023-05-14T04:07:26;8.27;;;7.47;;
14686;SDS011;7431;49.440;11.084;2023-05-14T04:09:52;8.40;;;7.67;;
14686;SDS011;7431;49.440;11.084;2023-05-14T04:12:18;8.10;;;7.30;;
14686;SDS011;7431;49.440;11.084;2023-05-14T04:14:44;7.37;;;6.67;;
14686;SDS011;7431;49.440;11.084;2023-05-14T04:17:10;8.17;;;7.37;;
14686;SDS011;7431;49.440;11.084;2023-05-14T04:19:36;8.67;;;6.93;;
14686;SDS011;7431;49.440;11.084;2023-05-14T04:22:03;7.60;;;6.90;;
14686;SDS011;7431;49.440;11.084;2023-05-14T04:24:29;7.87;;;7.17;;
14686;SDS011;7431;49.440;11.084;2023-05-14T04:26:55;7.93;;;7.13;;
14686;SDS011;7431;49.440;11.084;2023-05-14T04:29:21;8.50;;;7.27;;
14686;SDS011;7431;49.440;11.084;2023-05-14T04:31:50;7.27;;;6.67;;
14686;SDS011;7431;49.440;11.084;2023-05-14T04:34:16;7.80;;;7.10;;
14686;SDS011;7431;49.440;11.084;2023-05-14T04:36:42;7.40;;;6.70;;
14686;SDS011;7431;49.440;11.084;2023-05-14T04:39:08;7.33;;;6.63;;
14686;SDS011;7431;49.440;11.084;2023-05-14T04:41:36;7.60;;;6.90;;
14686;SDS011;7431;49.440;11.084;2023-05-14T04:44:03;7.77;;;6.83;;
14686;SDS011;7431;49.440;11.084;2023-05-14T04:46:29;7.40;;;6.70;;
14686;SDS011;7431;49.440;11.084;2023-05-14T04:48:55;7.60;;;6.70;;
14686;SDS011;7431;49.440;11.084;2023-05-14T04:51:21;7.03;;;6.30;;
14686;SDS011;7431;49.440;11.084;2023-05-14T04:53:47;7.37;;;6.67;;
14686;SDS011;7431;49.440;11.084;2023-05-14T04:56:13;6.60;;;6.00;;
14686;SDS011;7431;49.440;11.084;2023-05-14T04:58:39;6.80;;;6.20;;
14686;SDS011;7431;49.440;11.084;2023-05-14T05:01:05;7.47;;;6.33;;
14686;SDS011;7431;49.440;11.084;2023-05-14T05:03:31;7.00;;;6.40;;
14686;SDS011;7431;49.440;11.084;2023-05-14T05:05:57;6.83;;;5.97;;
14686;SDS011;7431;49.440;11.084;2023-05-14T05:08:23;7.13;;;6.43;;
14686;SDS011;7431;49.440;11.084;2023-05-14T05:10:49;6.90;;;6.20;;
14686;SDS011;7431;49.440;11.084;2023-05-14T05:13:15;6.33;;;5.73;;
14686;SDS011;7431;49.440;11.084;2023-05-14T05:15:42;6.80;;;6.00;;
14686;SDS011;7431;49.440;11.084;2023-05-14T05:18:08;7.13;;;6.33;;
14686;SDS011;7431;49.440;11.084;2023-05-14T05:20:34;6.30;;;5.57;;
14686;SDS011;7431;49.440;11.084;2023-05-14T05:23:00;6.50;;;5.90;;
14686;SDS011;7431;49.440;11.084;2023-05-14T05:25:26;6.27;;;5.67;;
14686;SDS011;7431;49.440;11.084;2023-05-14T05:27:52;5.43;;;5.03;;
14686;SDS011;7431;49.440;11.084;2023-05-14T05:30:18;5.78;;;5.18;;
14686;SDS011;7431;49.440;11.084;2023-05-14T05:32:44;6.63;;;5.20;;
14686;SDS011;7431;49.440;11.084;2023-05-14T05:35:13;5.32;;;4.82;;
14686;SDS011;7431;49.440;11.084;2023-05-14T05:37:39;5.00;;;4.60;;
14686;SDS011;7431;49.440;11.084;2023-05-14T05:40:06;5.30;;;4.90;;
14686;SDS011;7431;49.440;11.084;2023-05-14T05:42:33;5.15;;;4.75;;
14686;SDS011;7431;49.440;11.084;2023-05-14T05:44:59;4.65;;;4.28;;
14686;SDS011;7431;49.440;11.084;2023-05-14T05:47:25;5.30;;;4.90;;
14686;SDS011;7431;49.440;11.084;2023-05-14T05:49:50;5.15;;;4.65;;
14686;SDS011;7431;49.440;11.084;2023-05-14T05:52:18;5.53;;;5.13;;
14686;SDS011;7431;49.440;11.084;2023-05-14T05:54:43;5.78;;;5.28;;
14686;SDS011;7431;49.440;11.084;2023-05-14T05:57:09;6.15;;;5.57;;
14686;SDS011;7431;49.440;11.084;2023-05-14T05:59:35;6.57;;;5.97;;
14686;SDS011;7431;49.440;11.084;2023-05-14T06:02:01;6.25;;;5.75;;
14686;SDS011;7431;49.440;11.084;2023-05-14T06:04:27;6.20;;;5.60;;
14686;SDS011;7431;49.440;11.084;2023-05-14T06:06:53;6.93;;;6.33;;
14686;SDS011;7431;49.440;11.084;2023-05-14T06:09:19;6.17;;;5.67;;
14686;SDS011;7431;49.440;11.084;2023-05-14T06:11:45;6.07;;;5.57;;
14686;SDS011;7431;49.440;11.084;2023-05-14T06:14:11;5.90;;;5.30;;
14686;SDS011;7431;49.440;11.084;2023-05-14T06:16:37;6.15;;;5.50;;
14686;SDS011;7431;49.440;11.084;2023-05-14T06:19:03;5.45;;;4.82;;
14686;SDS011;7431;49.440;11.084;2023-05-14T06:21:30;5.43;;;4.93;;
14686;SDS011;7431;49.440;11.084;2023-05-14T06:23:56;5.90;;;5.32;;
14686;SDS011;7431;49.440;11.084;2023-05-14T06:26:22;5.25;;;4.75;;
14686;SDS011;7431;49.440;11.084;2023-05-14T06:28:48;4.88;;;4.47;;
14686;SDS011;7431;49.440;11.084;2023-05-14T06:31:14;4.72;;;4.32;;
14686;SDS011;7431;49.440;11.084;2023-05-14T06:33:40;5.03;;;4.57;;
14686;SDS011;7431;49.440;11.084;2023-05-14T06:36:06;5.50;;;5.00;;
14686;SDS011;7431;49.440;11.084;2023-05-14T06:38:32;5.20;;;4.80;;
14686;SDS011;7431;49.440;11.084;2023-05-14T06:40:58;5.78;;;5.20;;
14686;SDS011;7431;49.440;11.084;2023-05-14T06:43:24;5.63;;;5.13;;
14686;SDS011;7431;49.440;11.084;2023-05-14T06:45:50;6.43;;;5.83;;
14686;SDS011;7431;49.440;11.084;2023-05-14T06:48:17;5.90;;;5.40;;
14686;SDS011;7431;49.440;11.084;2023-05-14T06:50:46;6.27;;;5.73;;
14686;SDS011;7431;49.440;11.084;2023-05-14T06:53:13;6.40;;;5.80;;
14686;SDS011;7431;49.440;11.084;2023-05-14T06:55:42;6.50;;;5.87;;
14686;SDS011;7431;49.440;11.084;2023-05-14T06:58:08;6.07;;;5.47;;
14686;SDS011;7431;49.440;11.084;2023-05-14T07:00:35;6.67;;;5.97;;
14686;SDS011;7431;49.440;11.084;2023-05-14T07:03:11;6.13;;;5.53;;
14686;SDS011;7431;49.440;11.084;2023-05-14T07:05:57;5.63;;;5.10;;
14686;SDS011;7431;49.440;11.084;2023-05-14T07:08:23;6.37;;;5.77;;
14686;SDS011;7431;49.440;11.084;2023-05-14T07:10:49;6.33;;;5.73;;
14686;SDS011;7431;49.440;11.084;2023-05-14T07:13:15;6.33;;;5.70;;
14686;SDS011;7431;49.440;11.084;2023-05-14T07:15:41;7.50;;;5.90;;
14686;SDS011;7431;49.440;11.084;2023-05-14T07:18:07;6.13;;;5.53;;
14686;SDS011;7431;49.440;11.084;2023-05-14T07:20:33;6.77;;;5.50;;
14686;SDS011;7431;49.440;11.084;2023-05-14T07:22:59;5.80;;;5.20;;
14686;SDS011;7431;49.440;11.084;2023-05-14T07:25:25;5.97;;;5.40;;
14686;SDS011;7431;49.440;11.084;2023-05-14T07:27:51;5.63;;;5.13;;
14686;SDS011;7431;49.440;11.084;2023-05-14T07:30:18;5.33;;;4.83;;
14686;SDS011;7431;49.440;11.084;2023-05-14T07:32:44;6.13;;;5.47;;
14686;SDS011;7431;49.440;11.084;2023-05-14T07:35:10;6.27;;;5.57;;
14686;SDS011;7431;49.440;11.084;2023-05-14T07:37:36;6.40;;;5.80;;
14686;SDS011;7431;49.440;11.084;2023-05-14T07:40:02;6.47;;;5.20;;
14686;SDS011;7431;49.440;11.084;2023-05-14T07:42:28;5.70;;;5.15;;
14686;SDS011;7431;49.440;11.084;2023-05-14T07:44:54;5.53;;;4.88;;
14686;SDS011;7431;49.440;11.084;2023-05-14T07:47:20;5.05;;;4.65;;
14686;SDS011;7431;49.440;11.084;2023-05-14T07:49:46;5.40;;;4.90;;
14686;SDS011;7431;49.440;11.084;2023-05-14T07:52:12;5.55;;;5.07;;
14686;SDS011;7431;49.440;11.084;2023-05-14T07:54:38;5.43;;;4.93;;
14686;SDS011;7431;49.440;11.084;2023-05-14T07:57:04;5.97;;;5.35;;
14686;SDS011;7431;49.440;11.084;2023-05-14T07:59:31;5.40;;;4.90;;
14686;SDS011;7431;49.440;11.084;2023-05-14T08:01:57;6.75;;;5.10;;
14686;SDS011;7431;49.440;11.084;2023-05-14T08:04:23;5.55;;;5.05;;
14686;SDS011;7431;49.440;11.084;2023-05-14T08:06:50;6.85;;;5.55;;
14686;SDS011;7431;49.440;11.084;2023-05-14T08:09:16;5.25;;;4.85;;
14686;SDS011;7431;49.440;11.084;2023-05-14T08:11:42;4.93;;;4.53;;
14686;SDS011;7431;49.440;11.084;2023-05-14T08:14:08;5.13;;;4.72;;
14686;SDS011;7431;49.440;11.084;2023-05-14T08:16:34;6.15;;;5.63;;
14686;SDS011;7431;49.440;11.084;2023-05-14T08:19:00;5.32;;;4.82;;
14686;SDS011;7431;49.440;11.084;2023-05-14T08:21:26;5.90;;;4.80;;
14686;SDS011;7431;49.440;11.084;2023-05-14T08:23:52;5.88;;;5.30;;
14686;SDS011;7431;49.440;11.084;2023-05-14T08:26:18;5.78;;;5.18;;
14686;SDS011;7431;49.440;11.084;2023-05-14T08:28:45;5.07;;;4.53;;
14686;SDS011;7431;49.440;11.084;2023-05-14T08:31:11;5.63;;;5.13;;
14686;SDS011;7431;49.440;11.084;2023-05-14T08:33:38;5.60;;;5.10;;
14686;SDS011;7431;49.440;11.084;2023-05-14T08:36:04;5.78;;;5.28;;
14686;SDS011;7431;49.440;11.084;2023-05-14T08:38:31;5.68;;;5.18;;
14686;SDS011;7431;49.440;11.084;2023-05-14T08:40:57;5.30;;;4.80;;
14686;SDS011;7431;49.440;11.084;2023-05-14T08:43:29;5.97;;;5.47;;
14686;SDS011;7431;49.440;11.084;2023-05-14T08:45:59;6.38;;;5.38;;
14686;SDS011;7431;49.440;11.084;2023-05-14T08:48:27;6.80;;;5.65;;
14686;SDS011;7431;49.440;11.084;2023-05-14T08:50:56;6.00;;;5.40;;
14686;SDS011;7431;49.440;11.084;2023-05-14T08:53:22;5.85;;;5.35;;
14686;SDS011;7431;49.440;11.084;2023-05-14T08:55:49;5.30;;;4.80;;
14686;SDS011;7431;49.440;11.084;2023-05-14T08:58:15;5.78;;;5.20;;
14686;SDS011;7431;49.440;11.084;2023-05-14T09:00:41;6.50;;;5.80;;
14686;SDS011;7431;49.440;11.084;2023-05-14T09:03:07;6.07;;;5.50;;
14686;SDS011;7431;49.440;11.084;2023-05-14T09:05:34;5.87;;;5.27;;
14686;SDS011;7431;49.440;11.084;2023-05-14T09:08:00;5.50;;;5.00;;
14686;SDS011;7431;49.440;11.084;2023-05-14T09:10:26;6.47;;;5.80;;
14686;SDS011;7431;49.440;11.084;2023-05-14T09:12:52;6.27;;;5.40;;
14686;SDS011;7431;49.440;11.084;2023-05-14T09:15:18;5.30;;;4.80;;
14686;SDS011;7431;49.440;11.084;2023-05-14T09:17:44;4.95;;;4.55;;
14686;SDS011;7431;49.440;11.084;2023-05-14T09:20:12;4.97;;;4.57;;
14686;SDS011;7431;49.440;11.084;2023-05-14T09:22:39;5.10;;;4.70;;
14686;SDS011;7431;49.440;11.084;2023-05-14T09:25:06;5.00;;;4.60;;
14686;SDS011;7431;49.440;11.084;2023-05-14T09:27:34;5.17;;;4.70;;
14686;SDS011;7431;49.440;11.084;2023-05-14T09:30:04;7.10;;;6.17;;
14686;SDS011;7431;49.440;11.084;2023-05-14T09:32:40;5.97;;;5.43;;
14686;SDS011;7431;49.440;11.084;2023-05-14T09:35:23;5.95;;;5.18;;
14686;SDS011;7431;49.440;11.084;2023-05-14T09:37:50;6.10;;;5.47;;
14686;SDS011;7431;49.440;11.084;2023-05-14T09:40:17;5.40;;;4.90;;
14686;SDS011;7431;49.440;11.084;2023-05-14T09:42:43;5.63;;;5.18;;
14686;SDS011;7431;49.440;11.084;2023-05-14T09:45:09;5.72;;;4.85;;
14686;SDS011;7431;49.440;11.084;2023-05-14T09:47:36;5.13;;;4.70;;
14686;SDS011;7431;49.440;11.084;2023-05-14T09:50:03;4.70;;;4.30;;
14686;SDS011;7431;49.440;11.084;2023-05-14T09:52:29;5.28;;;4.63;;
14686;SDS011;7431;49.440;11.084;2023-05-14T09:54:55;5.15;;;4.35;;
14686;SDS011;7431;49.440;11.084;2023-05-14T09:57:21;5.03;;;4.53;;
14686;SDS011;7431;49.440;11.084;2023-05-14T09:59:48;4.60;;;4.20;;
14686;SDS011;7431;49.440;11.084;2023-05-14T10:02:24;5.35;;;4.85;;
14686;SDS011;7431;49.440;11.084;2023-05-14T10:04:51;7.55;;;6.78;;
14686;SDS011;7431;49.440;11.084;2023-05-14T10:07:20;5.88;;;5.28;;
14686;SDS011;7431;49.440;11.084;2023-05-14T10:09:47;5.97;;;5.47;;
14686;SDS011;7431;49.440;11.084;2023-05-14T10:12:14;10.15;;;8.43;;
14686;SDS011;7431;49.440;11.084;2023-05-14T10:14:42;8.20;;;7.18;;
14686;SDS011;7431;49.440;11.084;2023-05-14T10:17:13;4.82;;;4.43;;
14686;SDS011;7431;49.440;11.084;2023-05-14T10:19:42;5.18;;;4.68;;
14686;SDS011;7431;49.440;11.084;2023-05-14T10:22:10;5.50;;;4.88;;
14686;SDS011;7431;49.440;11.084;2023-05-14T10:24:37;5.72;;;5.10;;
14686;SDS011;7431;49.440;11.084;2023-05-14T10:27:03;7.07;;;6.22;;
14686;SDS011;7431;49.440;11.084;2023-05-14T10:29:30;4.43;;;4.03;;
14686;SDS011;7431;49.440;11.084;2023-05-14T10:31:57;5.68;;;5.10;;
14686;SDS011;7431;49.440;11.084;2023-05-14T10:34:29;5.95;;;4.75;;
14686;SDS011;7431;49.440;11.084;2023-05-14T10:37:01;6.07;;;4.60;;
14686;SDS011;7431;49.440;11.084;2023-05-14T10:42:07;5.00;;;4.60;;
14686;SDS011;7431;49.440;11.084;2023-05-14T10:44:34;6.15;;;5.00;;
14686;SDS011;7431;49.440;11.084;2023-05-14T10:47:00;4.68;;;4.28;;
14686;SDS011;7431;49.440;11.084;2023-05-14T10:49:26;5.20;;;4.72;;
14686;SDS011;7431;49.440;11.084;2023-05-14T10:51:52;6.63;;;5.53;;
14686;SDS011;7431;49.440;11.084;2023-05-14T10:54:18;4.30;;;3.90;;
14686;SDS011;7431;49.440;11.084;2023-05-14T10:56:45;4.70;;;4.30;;
14686;SDS011;7431;49.440;11.084;2023-05-14T10:59:11;5.53;;;5.03;;
14686;SDS011;7431;49.440;11.084;2023-05-14T11:01:39;4.88;;;4.28;;
14686;SDS011;7431;49.440;11.084;2023-05-14T11:04:05;4.20;;;3.90;;
14686;SDS011;7431;49.440;11.084;2023-05-14T11:06:31;5.43;;;4.93;;
14686;SDS011;7431;49.440;11.084;2023-05-14T11:08:57;4.55;;;4.15;;
14686;SDS011;7431;49.440;11.084;2023-05-14T11:11:25;6.40;;;5.80;;
14686;SDS011;7431;49.440;11.084;2023-05-14T11:13:52;4.82;;;4.43;;
14686;SDS011;7431;49.440;11.084;2023-05-14T11:16:19;4.28;;;3.90;;
14686;SDS011;7431;49.440;11.084;2023-05-14T11:18:47;4.68;;;4.28;;
14686;SDS011;7431;49.440;11.084;2023-05-14T11:21:17;4.35;;;3.95;;
14686;SDS011;7431;49.440;11.084;2023-05-14T11:23:45;4.20;;;3.90;;
14686;SDS011;7431;49.440;11.084;2023-05-14T11:26:11;4.90;;;4.50;;
14686;SDS011;7431;49.440;11.084;2023-05-14T11:28:37;4.22;;;3.83;;
14686;SDS011;7431;49.440;11.084;2023-05-14T11:31:03;6.03;;;4.68;;
14686;SDS011;7431;49.440;11.084;2023-05-14T11:33:29;5.80;;;4.00;;
14686;SDS011;7431;49.440;11.084;2023-05-14T11:35:56;5.05;;;4.55;;
14686;SDS011;7431;49.440;11.084;2023-05-14T11:38:22;4.72;;;4.32;;
14686;SDS011;7431;49.440;11.084;2023-05-14T11:40:54;4.80;;;4.40;;
14686;SDS011;7431;49.440;11.084;2023-05-14T11:43:20;5.47;;;4.97;;
14686;SDS011;7431;49.440;11.084;2023-05-14T11:45:52;5.90;;;5.40;;
14686;SDS011;7431;49.440;11.084;2023-05-14T11:48:19;5.10;;;4.60;;
14686;SDS011;7431;49.440;11.084;2023-05-14T11:50:48;4.88;;;4.38;;
14686;SDS011;7431;49.440;11.084;2023-05-14T11:53:18;4.90;;;4.43;;
14686;SDS011;7431;49.440;11.084;2023-05-14T11:55:45;6.00;;;5.40;;
14686;SDS011;7431;49.440;11.084;2023-05-14T11:58:11;5.28;;;4.70;;
14686;SDS011;7431;49.440;11.084;2023-05-14T12:00:37;5.32;;;4.70;;
14686;SDS011;7431;49.440;11.084;2023-05-14T12:03:04;4.35;;;3.95;;
14686;SDS011;7431;49.440;11.084;2023-05-14T12:05:31;4.87;;;4.10;;
14686;SDS011;7431;49.440;11.084;2023-05-14T12:07:57;4.30;;;4.00;;
14686;SDS011;7431;49.440;11.084;2023-05-14T12:10:23;4.25;;;3.85;;
14686;SDS011;7431;49.440;11.084;2023-05-14T12:12:49;4.65;;;4.25;;
14686;SDS011;7431;49.440;11.084;2023-05-14T12:15:15;5.53;;;4.45;;
14686;SDS011;7431;49.440;11.084;2023-05-14T12:17:41;5.38;;;4.82;;
14686;SDS011;7431;49.440;11.084;2023-05-14T12:20:08;5.65;;;4.95;;
14686;SDS011;7431;49.440;11.084;2023-05-14T12:22:37;4.22;;;3.92;;
14686;SDS011;7431;49.440;11.084;2023-05-14T12:25:08;3.85;;;3.47;;
14686;SDS011;7431;49.440;11.084;2023-05-14T12:27:36;5.57;;;4.75;;
14686;SDS011;7431;49.440;11.084;2023-05-14T12:30:03;5.70;;;4.93;;
14686;SDS011;7431;49.440;11.084;2023-05-14T12:32:32;3.93;;;3.63;;
14686;SDS011;7431;49.440;11.084;2023-05-14T12:34:58;4.07;;;3.70;;
14686;SDS011;7431;49.440;11.084;2023-05-14T12:37:27;7.97;;;7.17;;
14686;SDS011;7431;49.440;11.084;2023-05-14T12:39:53;3.97;;;3.67;;
14686;SDS011;7431;49.440;11.084;2023-05-14T12:42:19;4.63;;;4.22;;
14686;SDS011;7431;49.440;11.084;2023-05-14T12:44:46;4.10;;;3.80;;
14686;SDS011;7431;49.440;11.084;2023-05-14T12:47:12;4.45;;;4.05;;
14686;SDS011;7431;49.440;11.084;2023-05-14T12:49:38;4.18;;;3.88;;
14686;SDS011;7431;49.440;11.084;2023-05-14T12:52:04;4.22;;;3.92;;
14686;SDS011;7431;49.440;11.084;2023-05-14T12:54:30;4.70;;;4.30;;
14686;SDS011;7431;49.440;11.084;2023-05-14T12:56:56;4.18;;;3.88;;
14686;SDS011;7431;49.440;11.084;2023-05-14T12:59:22;4.70;;;4.25;;
14686;SDS011;7431;49.440;11.084;2023-05-14T13:01:48;4.00;;;3.70;;
14686;SDS011;7431;49.440;11.084;2023-05-14T13:04:14;4.63;;;4.13;;
14686;SDS011;7431;49.440;11.084;2023-05-14T13:06:40;4.32;;;3.92;;
14686;SDS011;7431;49.440;11.084;2023-05-14T13:09:06;4.15;;;3.75;;
14686;SDS011;7431;49.440;11.084;2023-05-14T13:11:32;4.60;;;4.20;;
14686;SDS011;7431;49.440;11.084;2023-05-14T13:13:59;3.47;;;3.17;;
14686;SDS011;7431;49.440;11.084;2023-05-14T13:16:25;4.07;;;3.78;;
14686;SDS011;7431;49.440;11.084;2023-05-14T13:18:51;4.05;;;3.65;;
14686;SDS011;7431;49.440;11.084;2023-05-14T13:21:17;5.65;;;5.15;;
14686;SDS011;7431;49.440;11.084;2023-05-14T13:23:43;4.30;;;3.90;;
14686;SDS011;7431;49.440;11.084;2023-05-14T13:26:09;4.07;;;3.75;;
14686;SDS011;7431;49.440;11.084;2023-05-14T13:28:35;4.35;;;3.95;;
14686;SDS011;7431;49.440;11.084;2023-05-14T13:31:11;4.75;;;3.90;;
14686;SDS011;7431;49.440;11.084;2023-05-14T13:33:41;3.67;;;3.38;;
14686;SDS011;7431;49.440;11.084;2023-05-14T13:36:08;3.60;;;3.25;;
14686;SDS011;7431;49.440;11.084;2023-05-14T13:38:34;3.60;;;3.30;;
14686;SDS011;7431;49.440;11.084;2023-05-14T13:41:01;3.80;;;3.50;;
14686;SDS011;7431;49.440;11.084;2023-05-14T13:43:30;4.10;;;3.70;;
14686;SDS011;7431;49.440;11.084;2023-05-14T13:45:56;3.50;;;3.20;;
14686;SDS011;7431;49.440;11.084;2023-05-14T13:48:23;4.53;;;3.67;;
14686;SDS011;7431;49.440;11.084;2023-05-14T13:50:49;3.25;;;2.97;;
14686;SDS011;7431;49.440;11.084;2023-05-14T13:53:16;3.47;;;3.22;;
14686;SDS011;7431;49.440;11.084;2023-05-14T13:55:41;3.25;;;2.95;;
14686;SDS011;7431;49.440;11.084;2023-05-14T13:58:07;4.15;;;3.75;;
14686;SDS011;7431;49.440;11.084;2023-05-14T14:00:34;3.80;;;3.17;;
14686;SDS011;7431;49.440;11.084;2023-05-14T14:03:00;3.60;;;3.30;;
14686;SDS011;7431;49.440;11.084;2023-05-14T14:05:25;3.50;;;3.20;;
14686;SDS011;7431;49.440;11.084;2023-05-14T14:07:55;4.03;;;3.60;;
14686;SDS011;7431;49.440;11.084;2023-05-14T14:10:21;4.40;;;4.00;;
14686;SDS011;7431;49.440;11.084;2023-05-14T14:12:48;3.80;;;3.50;;
14686;SDS011;7431;49.440;11.084;2023-05-14T14:15:14;3.20;;;3.00;;
14686;SDS011;7431;49.440;11.084;2023-05-14T14:17:40;4.18;;;3.80;;
14686;SDS011;7431;49.440;11.084;2023-05-14T14:20:06;3.90;;;3.60;;
14686;SDS011;7431;49.440;11.084;2023-05-14T14:22:33;3.70;;;3.40;;
14686;SDS011;7431;49.440;11.084;2023-05-14T14:24:59;5.50;;;4.80;;
14686;SDS011;7431;49.440;11.084;2023-05-14T14:27:25;4.22;;;3.72;;
14686;SDS011;7431;49.440;11.084;2023-05-14T14:29:51;3.75;;;3.45;;
14686;SDS011;7431;49.440;11.084;2023-05-14T14:32:17;4.47;;;4.07;;
14686;SDS011;7431;49.440;11.084;2023-05-14T14:34:44;4.03;;;3.67;;
14686;SDS011;7431;49.440;11.084;2023-05-14T14:37:10;4.88;;;4.47;;
14686;SDS011;7431;49.440;11.084;2023-05-14T14:39:36;4.53;;;4.15;;
14686;SDS011;7431;49.440;11.084;2023-05-14T14:42:02;4.72;;;3.63;;
14686;SDS011;7431;49.440;11.084;2023-05-14T14:44:28;3.80;;;3.50;;
14686;SDS011;7431;49.440;11.084;2023-05-14T14:46:54;3.58;;;3.28;;
14686;SDS011;7431;49.440;11.084;2023-05-14T14:49:20;4.93;;;4.07;;
14686;SDS011;7431;49.440;11.084;2023-05-14T14:51:46;4.30;;;3.90;;
14686;SDS011;7431;49.440;11.084;2023-05-14T14:54:12;4.05;;;3.75;;